KBCT

Boca Raton Airport

Boca Raton, Florida, USA
METAR KBCT 231347Z 12011G17KT 10SM BKN028 25/19 A3035
Observed Flight Rules
Feb-23 @ 13:47 UTC (48 minutes ago) Marginal Visual Flight Rules
Wind Visibility Clouds
120° at 11 knots
 Gusting to 17 knots
10 miles
  • Broken at 2,800' AGL
Temperatures Readings
Current 25°C / 77°F
Dewpoint 19°C / 66°F
Humidity 69%
Altimeter 30.35" Hg
Pressure 1028 hPa
Elevation 4
METAR KBCT 231347Z 12011G17KT 10SM BKN028 25/19 A3035
Observed Flight Rules
Feb-23 @ 13:47 UTC
(48 minutes ago)
MVFR
Wind Visibility
120° at 11 knots
 Gusting to 17 knots
10 miles
Clouds
  • Broken at 2,800' AGL
Temperature Dewpoint
25°C / 77°F 19°C / 66°F
Humidity Altimeter Pressure
69% 30.35" Hg 1028 hPa